createdAt,value
2018-10-19T00:01:48.601Z,26.90
2018-10-19T00:04:16.991Z,27.93
2018-10-19T00:06:45.244Z,27.98
2018-10-19T00:09:13.509Z,30.10
2018-10-19T00:11:41.812Z,32.55
2018-10-19T00:14:10.092Z,34.35
2018-10-19T00:16:38.581Z,35.50
2018-10-19T00:19:07.259Z,36.10
2018-10-19T00:21:36.016Z,33.80
2018-10-19T00:24:04.831Z,34.80
2018-10-19T00:26:32.792Z,33.98
2018-10-19T00:29:01.459Z,34.80
2018-10-19T00:31:29.948Z,35.08
2018-10-19T00:33:58.423Z,35.55
2018-10-19T00:36:26.627Z,36.85
2018-10-19T00:38:54.913Z,37.23
2018-10-19T00:41:23.812Z,35.33
2018-10-19T00:43:52.158Z,36.28
2018-10-19T00:46:20.724Z,35.40
2018-10-19T00:48:49.126Z,37.33
2018-10-19T00:51:17.763Z,37.40
2018-10-19T00:53:46.949Z,35.08
2018-10-19T00:56:15.392Z,38.05
2018-10-19T00:58:44.154Z,39.42
2018-10-19T01:01:12.792Z,38.73
2018-10-19T01:03:41.140Z,38.92
2018-10-19T01:06:09.463Z,40.80
2018-10-19T01:08:37.999Z,37.25
2018-10-19T01:11:06.668Z,38.98
2018-10-19T01:13:35.273Z,39.75
2018-10-19T01:16:04.264Z,38.98
2018-10-19T01:18:32.953Z,36.30
2018-10-19T01:21:01.696Z,36.23
2018-10-19T01:23:30.421Z,37.30
2018-10-19T01:25:59.001Z,36.33
2018-10-19T01:28:27.384Z,36.95
2018-10-19T01:30:56.093Z,38.50
2018-10-19T01:33:25.144Z,39.30
2018-10-19T01:35:53.508Z,35.92
2018-10-19T01:38:21.710Z,36.50
2018-10-19T01:40:49.995Z,38.42
2018-10-19T01:43:18.083Z,36.77
2018-10-19T01:45:51.855Z,39.33
2018-10-19T01:48:20.628Z,37.58
2018-10-19T01:50:49.060Z,36.77
2018-10-19T01:53:17.875Z,36.45
2018-10-19T01:55:46.432Z,38.10
2018-10-19T01:58:15.378Z,37.38
2018-10-19T02:00:43.963Z,36.75
2018-10-19T02:03:13.339Z,36.30
2018-10-19T02:05:41.657Z,35.78
2018-10-19T02:08:10.587Z,37.03
2018-10-19T02:10:39.219Z,36.50
2018-10-19T02:13:08.813Z,33.88
2018-10-19T02:15:37.564Z,33.42
2018-10-19T02:18:06.080Z,33.20
2018-10-19T02:20:34.702Z,35.10
2018-10-19T02:23:03.325Z,36.42
2018-10-19T02:25:31.664Z,35.08
2018-10-19T02:27:59.830Z,35.52
2018-10-19T02:30:28.152Z,34.98
2018-10-19T02:32:56.606Z,33.48
2018-10-19T02:35:24.862Z,32.17
2018-10-19T02:37:53.244Z,32.80
2018-10-19T02:40:21.422Z,31.60
2018-10-19T02:42:49.760Z,31.48
2018-10-19T02:45:18.254Z,30.75
2018-10-19T02:47:46.555Z,29.12
2018-10-19T02:50:15.872Z,27.40
2018-10-19T02:52:44.136Z,25.40
2018-10-19T02:55:12.681Z,25.48
2018-10-19T02:57:40.892Z,25.20
2018-10-19T03:00:10.834Z,25.43
2018-10-19T03:02:39.605Z,25.50
2018-10-19T03:05:08.581Z,25.20
2018-10-19T03:07:37.336Z,25.05
2018-10-19T03:10:05.979Z,25.52
2018-10-19T03:12:34.632Z,24.80
2018-10-19T03:15:03.185Z,26.33
2018-10-19T03:17:31.708Z,25.60
2018-10-19T03:20:00.336Z,26.37
2018-10-19T03:22:28.767Z,24.50
2018-10-19T03:24:56.925Z,24.63
2018-10-19T03:27:25.555Z,23.70
2018-10-19T03:29:54.213Z,25.77
2018-10-19T03:32:22.870Z,23.65
2018-10-19T03:34:52.516Z,27.00
2018-10-19T03:37:20.677Z,25.30
2018-10-19T03:39:48.747Z,26.12
2018-10-19T03:42:17.258Z,27.70
2018-10-19T03:44:45.651Z,27.98
2018-10-19T03:47:14.487Z,26.87
2018-10-19T03:49:43.388Z,28.00
2018-10-19T03:52:11.693Z,29.42
2018-10-19T03:54:40.040Z,28.65
2018-10-19T03:57:08.542Z,31.15
2018-10-19T03:59:37.200Z,30.20
2018-10-19T04:02:05.626Z,29.77
2018-10-19T04:04:33.891Z,29.00
2018-10-19T04:07:03.876Z,30.10
2018-10-19T04:09:32.540Z,29.52
2018-10-19T04:12:00.940Z,29.30
2018-10-19T04:14:30.064Z,27.62
2018-10-19T04:16:58.455Z,28.30
2018-10-19T04:19:26.996Z,34.60
2018-10-19T04:21:55.754Z,39.65
2018-10-19T04:24:24.378Z,32.60
2018-10-19T04:26:52.862Z,31.30
2018-10-19T04:29:21.866Z,26.97
2018-10-19T04:31:50.728Z,28.80
2018-10-19T04:34:19.088Z,27.48
2018-10-19T04:36:47.500Z,28.45
2018-10-19T04:39:16.165Z,28.02
2018-10-19T04:41:44.710Z,29.50
2018-10-19T04:44:12.723Z,27.13
2018-10-19T04:46:41.388Z,28.75
2018-10-19T04:49:09.891Z,28.02
2018-10-19T04:51:38.271Z,28.23
2018-10-19T04:54:06.761Z,28.83
2018-10-19T04:56:36.297Z,29.85
2018-10-19T04:59:04.872Z,28.70
2018-10-19T05:01:33.033Z,27.82
2018-10-19T05:04:01.494Z,29.77
2018-10-19T05:06:30.347Z,28.32
2018-10-19T05:08:58.869Z,31.50
2018-10-19T05:11:27.561Z,30.75
2018-10-19T05:13:56.307Z,32.63
2018-10-19T05:16:24.493Z,31.90
2018-10-19T05:18:52.872Z,28.35
2018-10-19T05:21:21.444Z,26.60
2018-10-19T05:23:49.632Z,26.55
2018-10-19T05:26:18.070Z,25.10
2018-10-19T05:28:46.476Z,26.55
2018-10-19T05:31:14.689Z,29.87
2018-10-19T05:33:43.261Z,30.00
2018-10-19T05:36:11.608Z,29.27
2018-10-19T05:38:39.924Z,33.15
2018-10-19T05:41:08.472Z,30.65
2018-10-19T05:43:37.113Z,31.87
2018-10-19T05:46:05.856Z,30.75
2018-10-19T05:48:34.013Z,31.37
2018-10-19T05:51:02.564Z,29.92
2018-10-19T05:53:31.181Z,28.90
2018-10-19T05:55:59.348Z,28.50
2018-10-19T05:58:28.087Z,26.30
2018-10-19T06:00:56.236Z,27.58
2018-10-19T06:03:24.742Z,32.15
2018-10-19T06:05:52.768Z,35.88
2018-10-19T06:08:21.201Z,34.48
2018-10-19T06:10:50.559Z,35.45
2018-10-19T06:13:18.851Z,33.55
2018-10-19T06:15:48.464Z,31.60
2018-10-19T06:18:16.853Z,31.93
2018-10-19T06:20:45.544Z,32.53
2018-10-19T06:23:14.114Z,31.80
2018-10-19T06:25:42.439Z,29.87
2018-10-19T06:28:10.972Z,30.27
2018-10-19T06:30:39.676Z,28.42
2018-10-19T06:33:08.263Z,28.17
2018-10-19T06:35:37.876Z,32.50
2018-10-19T06:38:06.488Z,31.50
2018-10-19T06:40:34.907Z,30.95
2018-10-19T06:43:03.300Z,28.23
2018-10-19T06:45:31.697Z,45.00
2018-10-19T06:48:00.256Z,37.90
2018-10-19T06:50:28.489Z,35.97
2018-10-19T06:52:57.730Z,30.33
2018-10-19T06:55:25.803Z,26.33
2018-10-19T06:57:54.180Z,26.70
2018-10-19T07:00:22.656Z,26.17
2018-10-19T07:02:51.319Z,25.67
2018-10-19T07:05:19.616Z,27.13
2018-10-19T07:07:48.949Z,26.47
2018-10-19T07:10:17.308Z,23.87
2018-10-19T07:12:46.025Z,24.87
2018-10-19T07:15:14.531Z,24.73
2018-10-19T07:17:43.147Z,25.67
2018-10-19T07:20:11.312Z,26.10
2018-10-19T07:22:40.093Z,26.87
2018-10-19T07:25:08.493Z,26.20
2018-10-19T07:27:37.006Z,27.87
2018-10-19T07:30:05.688Z,25.17
2018-10-19T07:32:33.935Z,25.80
2018-10-19T07:35:02.343Z,25.73
2018-10-19T07:37:30.683Z,28.40
2018-10-19T07:39:58.823Z,31.37
2018-10-19T07:42:27.009Z,27.03
2018-10-19T07:44:54.828Z,25.77
2018-10-19T07:47:23.134Z,29.00
2018-10-19T07:49:50.952Z,26.60
2018-10-19T07:52:19.161Z,25.93
2018-10-19T07:54:47.188Z,23.50
2018-10-19T07:57:15.272Z,25.87
2018-10-19T07:59:43.356Z,26.20
2018-10-19T08:02:11.899Z,26.53
2018-10-19T08:04:40.166Z,23.43
2018-10-19T08:07:08.568Z,26.90
2018-10-19T08:09:36.843Z,28.87
2018-10-19T08:12:05.240Z,27.33
2018-10-19T08:14:33.705Z,27.57
2018-10-19T08:17:02.381Z,26.23
2018-10-19T08:19:30.708Z,27.10
2018-10-19T08:21:58.728Z,23.97
2018-10-19T08:24:26.811Z,24.00
2018-10-19T08:26:54.876Z,24.27
2018-10-19T08:29:22.921Z,24.80
2018-10-19T08:31:51.034Z,25.50
2018-10-19T08:34:19.084Z,29.07
2018-10-19T08:36:47.171Z,28.30
2018-10-19T08:39:15.234Z,28.27
2018-10-19T08:41:43.506Z,26.77
2018-10-19T08:44:11.397Z,25.60
2018-10-19T08:46:40.644Z,25.30
2018-10-19T08:49:10.359Z,21.67
2018-10-19T08:51:38.935Z,21.63
2018-10-19T08:54:07.480Z,21.57
2018-10-19T08:56:35.728Z,21.17
2018-10-19T08:59:03.900Z,22.97
2018-10-19T09:01:32.188Z,20.80
2018-10-19T09:04:00.166Z,21.10
2018-10-19T09:06:28.420Z,21.60
2018-10-19T09:08:56.760Z,21.20
2018-10-19T09:11:25.013Z,19.30
2018-10-19T09:13:53.392Z,20.17
2018-10-19T09:16:21.705Z,21.00
2018-10-19T09:18:50.079Z,21.47
2018-10-19T09:21:18.572Z,20.43
2018-10-19T09:23:46.751Z,19.57
2018-10-19T09:26:14.745Z,18.73
2018-10-19T09:28:42.822Z,18.50
2018-10-19T09:31:10.791Z,18.73
2018-10-19T09:33:38.740Z,18.63
2018-10-19T09:36:07.718Z,17.50
2018-10-19T09:38:35.704Z,17.97
2018-10-19T09:41:03.769Z,17.07
2018-10-19T09:43:31.856Z,17.90
2018-10-19T09:45:59.924Z,18.37
2018-10-19T09:48:28.079Z,17.70
2018-10-19T09:50:56.100Z,17.10
2018-10-19T09:53:24.128Z,17.53
2018-10-19T09:55:52.106Z,15.73
2018-10-19T09:58:20.279Z,16.50
2018-10-19T10:00:53.995Z,17.27
2018-10-19T10:03:21.960Z,15.67
2018-10-19T10:05:50.015Z,16.77
2018-10-19T10:08:17.995Z,15.10
2018-10-19T10:10:45.980Z,15.27
2018-10-19T10:13:14.845Z,16.33
2018-10-19T10:15:43.045Z,15.90
2018-10-19T10:18:10.987Z,14.27
2018-10-19T10:20:39.084Z,15.63
2018-10-19T10:23:07.148Z,14.30
2018-10-19T10:25:35.224Z,15.27
2018-10-19T10:28:03.305Z,13.97
2018-10-19T10:30:31.412Z,14.27
2018-10-19T10:32:59.415Z,14.30
2018-10-19T10:35:27.483Z,13.83
2018-10-19T10:37:55.576Z,13.30
2018-10-19T10:40:23.634Z,13.43
2018-10-19T10:42:51.696Z,13.10
2018-10-19T10:45:19.759Z,14.90
2018-10-19T10:47:47.912Z,14.73
2018-10-19T10:50:16.743Z,12.93
2018-10-19T10:52:44.900Z,13.17
2018-10-19T10:55:12.978Z,13.37
2018-10-19T10:57:41.054Z,14.37
2018-10-19T11:00:09.452Z,14.43
2018-10-19T11:02:37.657Z,13.70
2018-10-19T11:05:06.386Z,12.90
2018-10-19T11:07:34.778Z,12.93
2018-10-19T11:10:02.763Z,13.40
2018-10-19T11:12:31.080Z,13.00
2018-10-19T11:15:00.351Z,13.30
2018-10-19T11:17:28.286Z,14.20
2018-10-19T11:19:56.537Z,12.10
2018-10-19T11:22:24.536Z,12.70
2018-10-19T11:24:54.970Z,11.67
2018-10-19T11:27:23.124Z,11.17
2018-10-19T11:29:51.342Z,10.47
2018-10-19T11:32:19.167Z,12.67
2018-10-19T11:34:47.948Z,11.83
2018-10-19T11:37:16.248Z,13.40
2018-10-19T11:39:55.015Z,11.87
2018-10-19T11:42:23.292Z,11.70
2018-10-19T11:44:51.237Z,12.23
2018-10-19T11:47:19.276Z,12.63
2018-10-19T11:49:47.500Z,12.30
2018-10-19T11:52:15.532Z,10.93
2018-10-19T11:54:43.659Z,10.20
2018-10-19T11:57:11.662Z,11.87
2018-10-19T11:59:39.741Z,10.00
2018-10-19T12:02:08.596Z,9.33
2018-10-19T12:04:36.788Z,9.63
2018-10-19T12:07:05.185Z,10.17
2018-10-19T12:09:33.240Z,9.20
2018-10-19T12:12:01.345Z,9.20
2018-10-19T12:14:29.404Z,8.63
2018-10-19T12:16:58.378Z,8.73
2018-10-19T12:19:26.635Z,9.83
2018-10-19T12:21:54.840Z,9.83
2018-10-19T12:24:22.922Z,11.30
2018-10-19T12:26:51.276Z,10.60
2018-10-19T12:29:19.320Z,10.60
2018-10-19T12:31:47.437Z,10.43
2018-10-19T12:34:15.499Z,10.37
2018-10-19T12:36:43.624Z,9.50
2018-10-19T12:39:11.662Z,9.03
2018-10-19T12:41:39.696Z,9.00
2018-10-19T12:44:07.788Z,9.10
2018-10-19T12:46:48.351Z,8.10
2018-10-19T12:49:19.013Z,8.50
2018-10-19T12:51:47.007Z,7.60
2018-10-19T12:54:15.054Z,8.10
2018-10-19T12:56:43.207Z,8.50
2018-10-19T12:59:11.336Z,9.13
2018-10-19T13:01:39.416Z,9.30
2018-10-19T13:04:07.387Z,11.13
2018-10-19T13:06:35.504Z,10.23
2018-10-19T13:09:06.134Z,11.33
2018-10-19T13:11:34.140Z,10.70
2018-10-19T13:14:02.159Z,12.17
2018-10-19T13:16:30.106Z,12.90
2018-10-19T13:18:58.113Z,11.90
2018-10-19T13:21:25.948Z,11.27
2018-10-19T13:23:54.190Z,11.93
2018-10-19T13:26:22.233Z,12.13
2018-10-19T13:28:50.251Z,11.63
2018-10-19T13:31:18.361Z,11.67
2018-10-19T13:33:46.391Z,13.03
2018-10-19T13:36:14.928Z,12.10
2018-10-19T13:38:43.255Z,12.10
2018-10-19T13:41:11.932Z,13.50
2018-10-19T13:43:40.504Z,13.63
2018-10-19T13:46:08.639Z,14.33
2018-10-19T13:48:36.732Z,13.67
2018-10-19T13:51:04.842Z,14.10
2018-10-19T13:53:32.840Z,13.33
2018-10-19T13:56:00.896Z,14.80
2018-10-19T13:58:29.017Z,14.43
2018-10-19T14:00:57.095Z,13.80
2018-10-19T14:03:25.052Z,13.30
2018-10-19T14:05:53.055Z,13.37
2018-10-19T14:08:21.239Z,13.93
2018-10-19T14:10:49.317Z,13.70
2018-10-19T14:13:17.451Z,14.17
2018-10-19T14:15:45.520Z,14.83
2018-10-19T14:18:13.415Z,15.10
2018-10-19T14:20:41.616Z,13.90
2018-10-19T14:23:09.712Z,13.10
2018-10-19T14:25:37.808Z,14.10
2018-10-19T14:28:05.906Z,13.43
2018-10-19T14:30:34.200Z,15.00
2018-10-19T14:33:03.264Z,16.00
2018-10-19T14:35:31.241Z,15.40
2018-10-19T14:37:59.428Z,16.07
2018-10-19T14:40:27.709Z,15.70
2018-10-19T14:42:56.276Z,15.57
2018-10-19T14:45:24.468Z,16.37
2018-10-19T14:47:52.431Z,15.67
2018-10-19T14:50:20.664Z,14.80
2018-10-19T14:52:48.665Z,15.73
2018-10-19T14:55:17.879Z,16.17
2018-10-19T14:57:46.052Z,15.47
2018-10-19T15:00:15.100Z,16.87
2018-10-19T15:02:43.235Z,16.00
2018-10-19T15:05:12.855Z,16.90
2018-10-19T15:07:41.128Z,18.13
2018-10-19T15:10:11.745Z,16.43
2018-10-19T15:12:40.059Z,20.40
2018-10-19T15:15:09.429Z,19.03
2018-10-19T15:17:37.671Z,16.57
2018-10-19T15:20:05.944Z,16.20
2018-10-19T15:22:34.812Z,17.63
2018-10-19T15:25:02.825Z,18.20
2018-10-19T15:27:30.947Z,17.60
2018-10-19T15:29:59.020Z,18.40
2018-10-19T15:32:27.027Z,17.47
2018-10-19T15:34:55.896Z,17.57
2018-10-19T15:37:24.554Z,19.10
2018-10-19T15:39:52.444Z,20.33
2018-10-19T15:42:20.542Z,23.60
2018-10-19T15:44:48.620Z,21.10
2018-10-19T15:47:16.712Z,20.30
2018-10-19T15:49:44.762Z,20.70
2018-10-19T15:52:12.888Z,22.63
2018-10-19T15:54:40.891Z,19.97
2018-10-19T15:57:09.018Z,22.20
2018-10-19T15:59:36.955Z,20.20
2018-10-19T16:02:05.208Z,20.82
2018-10-19T16:04:33.559Z,20.57
2018-10-19T16:07:01.680Z,20.08
2018-10-19T16:09:30.340Z,21.17
2018-10-19T16:11:58.650Z,19.80
2018-10-19T16:14:26.585Z,20.15
2018-10-19T16:16:54.423Z,18.80
2018-10-19T16:19:22.934Z,18.48
2018-10-19T16:21:52.439Z,20.17
2018-10-19T16:24:20.824Z,21.23
2018-10-19T16:26:51.343Z,20.43
2018-10-19T16:29:19.908Z,21.15
2018-10-19T16:31:48.504Z,20.10
2018-10-19T16:34:16.764Z,21.00
2018-10-19T16:36:45.184Z,19.67
2018-10-19T16:39:13.460Z,19.20
2018-10-19T16:41:42.088Z,19.23
2018-10-19T16:44:10.655Z,19.57
2018-10-19T16:46:39.532Z,20.48
2018-10-19T16:49:07.993Z,22.25
2018-10-19T16:51:36.051Z,20.55
2018-10-19T16:54:04.253Z,21.37
2018-10-19T16:56:32.499Z,21.35
2018-10-19T16:59:00.483Z,22.02
2018-10-19T17:01:29.132Z,21.23
2018-10-19T17:03:57.368Z,20.45
2018-10-19T17:06:25.473Z,19.75
2018-10-19T17:08:53.898Z,21.65
2018-10-19T17:11:22.167Z,21.12
2018-10-19T17:13:51.124Z,21.02
2018-10-19T17:16:19.285Z,22.70
2018-10-19T17:18:47.396Z,22.73
2018-10-19T17:21:15.818Z,22.77
2018-10-19T17:23:44.093Z,23.02
2018-10-19T17:26:12.156Z,22.10
2018-10-19T17:28:40.091Z,20.95
2018-10-19T17:31:07.991Z,23.25
2018-10-19T17:33:36.158Z,24.15
2018-10-19T17:36:05.435Z,23.45
2018-10-19T17:38:33.758Z,23.30
2018-10-19T17:41:01.814Z,23.75
2018-10-19T17:43:29.828Z,22.13
2018-10-19T17:45:57.826Z,23.40
2018-10-19T17:48:26.060Z,23.50
2018-10-19T17:50:54.122Z,22.15
2018-10-19T17:53:22.138Z,22.42
2018-10-19T17:55:50.111Z,24.45
2018-10-19T17:58:17.880Z,25.00
2018-10-19T18:00:46.150Z,24.20
2018-10-19T18:03:14.483Z,24.55
2018-10-19T18:05:42.640Z,24.80
2018-10-19T18:08:10.876Z,23.83
2018-10-19T18:10:38.948Z,25.62
2018-10-19T18:13:07.101Z,25.37
2018-10-19T18:15:36.363Z,24.52
2018-10-19T18:18:04.520Z,22.58
2018-10-19T18:20:32.769Z,23.00
2018-10-19T18:23:01.014Z,22.80
2018-10-19T18:25:28.986Z,22.10
2018-10-19T18:27:57.704Z,22.52
2018-10-19T18:30:25.856Z,21.97
2018-10-19T18:32:54.375Z,23.70
2018-10-19T18:35:22.650Z,26.02
2018-10-19T18:37:51.376Z,23.92
2018-10-19T18:40:19.992Z,24.95
2018-10-19T18:42:48.649Z,24.18
2018-10-19T18:45:17.259Z,22.93
2018-10-19T18:47:46.039Z,22.65
2018-10-19T18:50:14.782Z,23.00
2018-10-19T18:52:43.215Z,24.18
2018-10-19T18:55:11.691Z,25.62
2018-10-19T18:57:40.071Z,24.20
2018-10-19T19:00:10.211Z,25.80
2018-10-19T19:02:38.712Z,24.43
2018-10-19T19:05:07.304Z,24.67
2018-10-19T19:07:35.811Z,24.23
2018-10-19T19:10:09.570Z,26.07
2018-10-19T19:12:37.984Z,26.40
2018-10-19T19:15:06.780Z,25.50
2018-10-19T19:17:34.987Z,28.15
2018-10-19T19:20:08.499Z,25.52
2018-10-19T19:22:36.833Z,26.57
2018-10-19T19:25:10.795Z,27.07
2018-10-19T19:27:38.957Z,27.15
2018-10-19T19:30:07.408Z,27.60
2018-10-19T19:32:35.477Z,27.05
2018-10-19T19:35:03.490Z,27.20
2018-10-19T19:37:31.576Z,28.17
2018-10-19T19:39:59.627Z,25.30
2018-10-19T19:42:33.052Z,27.50
2018-10-19T19:45:01.302Z,24.60
2018-10-19T19:47:34.782Z,25.77
2018-10-19T19:50:04.466Z,25.90
2018-10-19T19:52:32.859Z,24.98
2018-10-19T19:55:01.253Z,25.65
2018-10-19T19:57:29.311Z,23.80
2018-10-19T19:59:57.460Z,24.75
2018-10-19T20:02:25.460Z,24.10
2018-10-19T20:04:53.583Z,24.98
2018-10-19T20:07:21.616Z,22.75
2018-10-19T20:09:49.680Z,23.02
2018-10-19T20:12:17.911Z,25.02
2018-10-19T20:14:46.124Z,42.27
2018-10-19T20:17:14.269Z,37.10
2018-10-19T20:19:42.296Z,32.95
2018-10-19T20:22:13.611Z,27.77
2018-10-19T20:24:41.860Z,34.15
2018-10-19T20:27:09.852Z,30.10
2018-10-19T20:29:37.923Z,31.37
2018-10-19T20:32:06.146Z,31.75
2018-10-19T20:34:34.477Z,31.07
2018-10-19T20:37:02.519Z,30.43
2018-10-19T20:39:30.515Z,24.57
2018-10-19T20:41:58.996Z,23.38
2018-10-19T20:44:29.013Z,23.52
2018-10-19T20:46:56.788Z,24.37
2018-10-19T20:49:25.028Z,24.10
2018-10-19T20:51:53.031Z,23.45
2018-10-19T20:54:21.107Z,22.35
2018-10-19T20:56:49.196Z,22.67
2018-10-19T20:59:17.243Z,23.12
2018-10-19T21:01:45.364Z,23.80
2018-10-19T21:04:13.275Z,25.80
2018-10-19T21:06:41.461Z,24.40
2018-10-19T21:09:10.680Z,24.85
2018-10-19T21:11:39.303Z,23.07
2018-10-19T21:14:07.855Z,25.30
2018-10-19T21:16:35.859Z,24.63
2018-10-19T21:19:04.261Z,24.57
2018-10-19T21:21:32.344Z,26.35
2018-10-19T21:24:00.436Z,24.60
2018-10-19T21:26:28.492Z,24.70
2018-10-19T21:28:56.676Z,27.30
2018-10-19T21:31:24.616Z,31.37
2018-10-19T21:33:52.719Z,34.65
2018-10-19T21:36:20.846Z,34.88
2018-10-19T21:38:48.767Z,34.00
2018-10-19T21:41:16.893Z,33.90
2018-10-19T21:43:44.976Z,32.58
2018-10-19T21:46:13.568Z,31.40
2018-10-19T21:48:42.056Z,27.80
2018-10-19T21:51:10.423Z,28.40
2018-10-19T21:53:38.955Z,27.95
2018-10-19T21:56:08.053Z,27.90
2018-10-19T21:58:36.884Z,26.95
2018-10-19T22:01:05.230Z,26.27
2018-10-19T22:03:33.652Z,26.00
2018-10-19T22:06:02.382Z,26.48
2018-10-19T22:08:31.154Z,26.35
2018-10-19T22:10:59.784Z,27.10
2018-10-19T22:13:28.278Z,27.13
2018-10-19T22:15:56.731Z,27.25
2018-10-19T22:18:25.208Z,29.02
2018-10-19T22:20:53.725Z,29.57
2018-10-19T22:23:22.025Z,30.20
2018-10-19T22:25:50.519Z,29.95
2018-10-19T22:28:18.996Z,27.93
2018-10-19T22:30:47.628Z,26.50
2018-10-19T22:33:16.640Z,26.05
2018-10-19T22:35:45.024Z,24.95
2018-10-19T22:38:13.627Z,26.52
2018-10-19T22:40:42.087Z,25.60
2018-10-19T22:43:12.503Z,25.57
2018-10-19T22:45:40.992Z,26.95
2018-10-19T22:48:09.556Z,25.97
2018-10-19T22:50:37.963Z,26.68
2018-10-19T22:53:10.083Z,26.55
2018-10-19T22:55:38.568Z,27.35
2018-10-19T22:58:08.450Z,27.93
2018-10-19T23:00:37.025Z,27.07
2018-10-19T23:03:06.732Z,25.95
2018-10-19T23:05:35.566Z,27.45
2018-10-19T23:08:04.191Z,26.90
2018-10-19T23:10:32.688Z,28.98
2018-10-19T23:13:01.848Z,27.50
2018-10-19T23:15:30.356Z,27.35
2018-10-19T23:17:58.703Z,28.27
2018-10-19T23:20:27.169Z,28.55
2018-10-19T23:22:55.459Z,28.20
2018-10-19T23:25:28.419Z,29.48
2018-10-19T23:27:56.673Z,30.57
2018-10-19T23:30:25.342Z,28.50
2018-10-19T23:32:53.663Z,29.25
2018-10-19T23:35:21.958Z,30.45
2018-10-19T23:37:50.458Z,29.60
2018-10-19T23:40:19.192Z,28.10
2018-10-19T23:42:47.417Z,29.55
2018-10-19T23:45:18.112Z,28.55
2018-10-19T23:47:46.636Z,28.30
2018-10-19T23:50:15.132Z,31.33
2018-10-19T23:52:43.715Z,28.90
2018-10-19T23:55:12.773Z,28.25
2018-10-19T23:57:41.243Z,28.67
